sensor_id;sensor_type;location;lat;lon;timestamp;pressure;altitude;pressure_sealevel;temperature;humidity
12879;BME280;20617;49.476;10.986;2023-10-31T00:01:07;96613.16;;;14.08;100.00
12879;BME280;20617;49.476;10.986;2023-10-31T00:03:09;96614.47;;;14.02;100.00
12879;BME280;20617;49.476;10.986;2023-10-31T00:05:14;96625.81;;;13.92;100.00
12879;BME280;20617;49.476;10.986;2023-10-31T00:07:22;96627.47;;;13.93;100.00
12879;BME280;20617;49.476;10.986;2023-10-31T00:09:29;96624.53;;;13.86;100.00
12879;BME280;20617;49.476;10.986;2023-10-31T00:11:34;96631.31;;;13.89;100.00
12879;BME280;20617;49.476;10.986;2023-10-31T00:13:39;96637.03;;;13.82;100.00
12879;BME280;20617;49.476;10.986;2023-10-31T00:15:43;96640.38;;;13.85;100.00
12879;BME280;20617;49.476;10.986;2023-10-31T00:17:48;96637.94;;;13.93;100.00
12879;BME280;20617;49.476;10.986;2023-10-31T00:19:53;96633.56;;;13.93;100.00
12879;BME280;20617;49.476;10.986;2023-10-31T00:21:58;96639.41;;;13.86;100.00
12879;BME280;20617;49.476;10.986;2023-10-31T00:24:03;96641.56;;;13.80;100.00
12879;BME280;20617;49.476;10.986;2023-10-31T00:26:11;96637.09;;;13.60;100.00
12879;BME280;20617;49.476;10.986;2023-10-31T00:28:18;96644.13;;;13.59;100.00
12879;BME280;20617;49.476;10.986;2023-10-31T00:30:22;96642.09;;;13.52;100.00
12879;BME280;20617;49.476;10.986;2023-10-31T00:32:28;96648.63;;;13.57;100.00
12879;BME280;20617;49.476;10.986;2023-10-31T00:34:33;96639.25;;;13.55;100.00
12879;BME280;20617;49.476;10.986;2023-10-31T00:36:35;96643.41;;;13.46;100.00
12879;BME280;20617;49.476;10.986;2023-10-31T00:38:40;96640.47;;;13.40;100.00
12879;BME280;20617;49.476;10.986;2023-10-31T00:40:47;96644.97;;;13.49;100.00
12879;BME280;20617;49.476;10.986;2023-10-31T00:42:54;96643.66;;;13.43;100.00
12879;BME280;20617;49.476;10.986;2023-10-31T00:45:02;96648.78;;;13.45;100.00
12879;BME280;20617;49.476;10.986;2023-10-31T00:47:07;96650.94;;;13.40;100.00
12879;BME280;20617;49.476;10.986;2023-10-31T00:49:12;96651.66;;;13.42;100.00
12879;BME280;20617;49.476;10.986;2023-10-31T00:51:17;96658.66;;;13.41;100.00
12879;BME280;20617;49.476;10.986;2023-10-31T00:53:21;96667.91;;;13.34;100.00
12879;BME280;20617;49.476;10.986;2023-10-31T00:55:23;96666.97;;;13.35;100.00
12879;BME280;20617;49.476;10.986;2023-10-31T00:57:28;96665.56;;;13.31;100.00
12879;BME280;20617;49.476;10.986;2023-10-31T00:59:35;96662.47;;;13.26;100.00
12879;BME280;20617;49.476;10.986;2023-10-31T01:01:42;96656.41;;;13.25;100.00
12879;BME280;20617;49.476;10.986;2023-10-31T01:03:47;96652.72;;;13.28;100.00
12879;BME280;20617;49.476;10.986;2023-10-31T01:05:49;96654.97;;;13.21;100.00
12879;BME280;20617;49.476;10.986;2023-10-31T01:07:53;96659.94;;;13.24;100.00
12879;BME280;20617;49.476;10.986;2023-10-31T01:09:58;96656.31;;;13.27;100.00
12879;BME280;20617;49.476;10.986;2023-10-31T01:12:00;96656.88;;;13.30;100.00
12879;BME280;20617;49.476;10.986;2023-10-31T01:14:05;96649.88;;;13.31;100.00
12879;BME280;20617;49.476;10.986;2023-10-31T01:16:13;96668.88;;;13.33;100.00
12879;BME280;20617;49.476;10.986;2023-10-31T01:18:19;96659.84;;;13.26;100.00
12879;BME280;20617;49.476;10.986;2023-10-31T01:20:23;96662.94;;;13.31;100.00
12879;BME280;20617;49.476;10.986;2023-10-31T01:22:29;96664.25;;;13.36;100.00
12879;BME280;20617;49.476;10.986;2023-10-31T01:24:34;96675.28;;;13.29;100.00
12879;BME280;20617;49.476;10.986;2023-10-31T01:26:39;96671.13;;;13.38;100.00
12879;BME280;20617;49.476;10.986;2023-10-31T01:28:45;96677.06;;;13.40;100.00
12879;BME280;20617;49.476;10.986;2023-10-31T01:30:47;96673.50;;;13.41;100.00
12879;BME280;20617;49.476;10.986;2023-10-31T01:32:54;96671.84;;;13.40;100.00
12879;BME280;20617;49.476;10.986;2023-10-31T01:34:59;96666.63;;;13.28;100.00
12879;BME280;20617;49.476;10.986;2023-10-31T01:37:01;96664.47;;;13.33;100.00
12879;BME280;20617;49.476;10.986;2023-10-31T01:39:06;96668.03;;;13.21;100.00
12879;BME280;20617;49.476;10.986;2023-10-31T01:41:11;96670.03;;;13.18;100.00
12879;BME280;20617;49.476;10.986;2023-10-31T01:43:28;96659.72;;;13.16;100.00
12879;BME280;20617;49.476;10.986;2023-10-31T01:45:30;96670.03;;;13.18;100.00
12879;BME280;20617;49.476;10.986;2023-10-31T01:47:36;96663.03;;;13.18;100.00
12879;BME280;20617;49.476;10.986;2023-10-31T01:49:43;96653.66;;;13.16;100.00
12879;BME280;20617;49.476;10.986;2023-10-31T01:51:48;96651.78;;;13.06;100.00
12879;BME280;20617;49.476;10.986;2023-10-31T01:54:06;96643.31;;;13.03;100.00
12879;BME280;20617;49.476;10.986;2023-10-31T01:56:11;96650.94;;;12.95;100.00
12879;BME280;20617;49.476;10.986;2023-10-31T01:58:17;96661.00;;;12.88;100.00
12879;BME280;20617;49.476;10.986;2023-10-31T02:00:25;96665.91;;;12.93;100.00
12879;BME280;20617;49.476;10.986;2023-10-31T02:02:30;96673.84;;;12.91;100.00
12879;BME280;20617;49.476;10.986;2023-10-31T02:04:37;96681.19;;;12.97;100.00
12879;BME280;20617;49.476;10.986;2023-10-31T02:06:44;96687.88;;;13.01;100.00
12879;BME280;20617;49.476;10.986;2023-10-31T02:08:49;96688.09;;;12.87;100.00
12879;BME280;20617;49.476;10.986;2023-10-31T02:10:54;96684.25;;;12.80;100.00
12879;BME280;20617;49.476;10.986;2023-10-31T02:13:09;96682.50;;;12.80;100.00
12879;BME280;20617;49.476;10.986;2023-10-31T02:15:14;96685.34;;;12.77;100.00
12879;BME280;20617;49.476;10.986;2023-10-31T02:17:19;96682.50;;;12.69;100.00
12879;BME280;20617;49.476;10.986;2023-10-31T02:19:21;96682.25;;;12.72;100.00
12879;BME280;20617;49.476;10.986;2023-10-31T02:21:26;96684.38;;;12.67;100.00
12879;BME280;20617;49.476;10.986;2023-10-31T02:23:34;96688.88;;;12.65;100.00
12879;BME280;20617;49.476;10.986;2023-10-31T02:25:39;96685.44;;;12.64;100.00
12879;BME280;20617;49.476;10.986;2023-10-31T02:27:45;96678.31;;;12.66;100.00
12879;BME280;20617;49.476;10.986;2023-10-31T02:29:47;96692.19;;;12.56;100.00
12879;BME280;20617;49.476;10.986;2023-10-31T02:31:52;96684.47;;;12.54;100.00
12879;BME280;20617;49.476;10.986;2023-10-31T02:33:55;96691.91;;;12.48;100.00
12879;BME280;20617;49.476;10.986;2023-10-31T02:35:59;96693.84;;;12.45;100.00
12879;BME280;20617;49.476;10.986;2023-10-31T02:38:04;96698.31;;;12.43;100.00
12879;BME280;20617;49.476;10.986;2023-10-31T02:40:12;96698.91;;;12.47;100.00
12879;BME280;20617;49.476;10.986;2023-10-31T02:42:17;96705.19;;;12.44;100.00
12879;BME280;20617;49.476;10.986;2023-10-31T02:44:22;96709.13;;;12.50;100.00
12879;BME280;20617;49.476;10.986;2023-10-31T02:46:26;96708.16;;;12.40;100.00
12879;BME280;20617;49.476;10.986;2023-10-31T02:48:31;96716.59;;;12.43;100.00
12879;BME280;20617;49.476;10.986;2023-10-31T02:50:41;96720.25;;;12.41;100.00
12879;BME280;20617;49.476;10.986;2023-10-31T02:52:46;96726.25;;;12.30;100.00
12879;BME280;20617;49.476;10.986;2023-10-31T02:54:49;96724.38;;;12.32;100.00
12879;BME280;20617;49.476;10.986;2023-10-31T02:56:57;96737.41;;;12.32;100.00
12879;BME280;20617;49.476;10.986;2023-10-31T02:59:02;96722.81;;;12.30;100.00
12879;BME280;20617;49.476;10.986;2023-10-31T03:01:07;96721.72;;;12.21;100.00
12879;BME280;20617;49.476;10.986;2023-10-31T03:03:12;96727.88;;;12.20;100.00
12879;BME280;20617;49.476;10.986;2023-10-31T03:05:14;96731.47;;;12.19;100.00
12879;BME280;20617;49.476;10.986;2023-10-31T03:07:19;96738.19;;;12.10;100.00
12879;BME280;20617;49.476;10.986;2023-10-31T03:09:23;96743.09;;;12.02;100.00
12879;BME280;20617;49.476;10.986;2023-10-31T03:11:29;96749.88;;;12.05;100.00
12879;BME280;20617;49.476;10.986;2023-10-31T03:13:36;96737.75;;;12.04;100.00
12879;BME280;20617;49.476;10.986;2023-10-31T03:15:38;96747.59;;;12.00;100.00
12879;BME280;20617;49.476;10.986;2023-10-31T03:17:43;96749.00;;;11.93;100.00
12879;BME280;20617;49.476;10.986;2023-10-31T03:19:48;96741.03;;;11.94;100.00
12879;BME280;20617;49.476;10.986;2023-10-31T03:21:53;96738.13;;;11.99;100.00
12879;BME280;20617;49.476;10.986;2023-10-31T03:23:58;96727.97;;;12.07;100.00
12879;BME280;20617;49.476;10.986;2023-10-31T03:26:03;96738.44;;;11.94;100.00
12879;BME280;20617;49.476;10.986;2023-10-31T03:28:17;96741.78;;;11.96;100.00
12879;BME280;20617;49.476;10.986;2023-10-31T03:30:27;96749.38;;;11.99;100.00
12879;BME280;20617;49.476;10.986;2023-10-31T03:32:33;96762.41;;;11.99;100.00
12879;BME280;20617;49.476;10.986;2023-10-31T03:34:38;96751.84;;;12.01;100.00
12879;BME280;20617;49.476;10.986;2023-10-31T03:36:42;96757.41;;;11.96;100.00
12879;BME280;20617;49.476;10.986;2023-10-31T03:38:47;96752.38;;;12.06;100.00
12879;BME280;20617;49.476;10.986;2023-10-31T03:40:52;96748.84;;;12.07;100.00
12879;BME280;20617;49.476;10.986;2023-10-31T03:42:58;96742.59;;;11.97;100.00
12879;BME280;20617;49.476;10.986;2023-10-31T03:45:03;96759.28;;;11.94;100.00
12879;BME280;20617;49.476;10.986;2023-10-31T03:47:11;96749.69;;;11.95;100.00
12879;BME280;20617;49.476;10.986;2023-10-31T03:49:16;96759.19;;;11.96;100.00
12879;BME280;20617;49.476;10.986;2023-10-31T03:51:21;96745.75;;;11.89;100.00
12879;BME280;20617;49.476;10.986;2023-10-31T03:53:26;96748.47;;;11.88;100.00
12879;BME280;20617;49.476;10.986;2023-10-31T03:55:30;96745.53;;;11.79;100.00
12879;BME280;20617;49.476;10.986;2023-10-31T03:57:35;96748.91;;;11.69;100.00
12879;BME280;20617;49.476;10.986;2023-10-31T03:59:40;96750.81;;;11.67;100.00
12879;BME280;20617;49.476;10.986;2023-10-31T04:01:45;96759.53;;;11.66;100.00
12879;BME280;20617;49.476;10.986;2023-10-31T04:03:52;96767.72;;;11.61;100.00
12879;BME280;20617;49.476;10.986;2023-10-31T04:05:57;96773.53;;;11.65;100.00
12879;BME280;20617;49.476;10.986;2023-10-31T04:08:01;96781.22;;;11.66;100.00
12879;BME280;20617;49.476;10.986;2023-10-31T04:10:07;96780.00;;;11.59;100.00
12879;BME280;20617;49.476;10.986;2023-10-31T04:12:12;96783.13;;;11.64;100.00
12879;BME280;20617;49.476;10.986;2023-10-31T04:14:17;96775.53;;;11.61;100.00
12879;BME280;20617;49.476;10.986;2023-10-31T04:16:21;96784.91;;;11.64;100.00
12879;BME280;20617;49.476;10.986;2023-10-31T04:18:26;96783.22;;;11.63;100.00
12879;BME280;20617;49.476;10.986;2023-10-31T04:20:34;96786.03;;;11.60;100.00
12879;BME280;20617;49.476;10.986;2023-10-31T04:22:39;96793.13;;;11.70;100.00
12879;BME280;20617;49.476;10.986;2023-10-31T04:24:43;96795.59;;;11.72;100.00
12879;BME280;20617;49.476;10.986;2023-10-31T04:26:48;96786.88;;;11.60;100.00
12879;BME280;20617;49.476;10.986;2023-10-31T04:28:53;96784.06;;;11.63;100.00
12879;BME280;20617;49.476;10.986;2023-10-31T04:30:58;96793.78;;;11.61;100.00
12879;BME280;20617;49.476;10.986;2023-10-31T04:33:02;96786.59;;;11.52;100.00
12879;BME280;20617;49.476;10.986;2023-10-31T04:35:08;96795.75;;;11.57;100.00
12879;BME280;20617;49.476;10.986;2023-10-31T04:37:15;96792.50;;;11.54;100.00
12879;BME280;20617;49.476;10.986;2023-10-31T04:39:20;96787.44;;;11.52;100.00
12879;BME280;20617;49.476;10.986;2023-10-31T04:41:22;96798.91;;;11.50;100.00
12879;BME280;20617;49.476;10.986;2023-10-31T04:43:28;96793.91;;;11.47;100.00
12879;BME280;20617;49.476;10.986;2023-10-31T04:45:32;96802.97;;;11.41;100.00
12879;BME280;20617;49.476;10.986;2023-10-31T04:47:37;96791.72;;;11.41;100.00
12879;BME280;20617;49.476;10.986;2023-10-31T04:49:42;96796.81;;;11.42;100.00
12879;BME280;20617;49.476;10.986;2023-10-31T04:51:47;96799.75;;;11.38;100.00
12879;BME280;20617;49.476;10.986;2023-10-31T04:53:55;96801.94;;;11.44;100.00
12879;BME280;20617;49.476;10.986;2023-10-31T04:56:00;96804.97;;;11.38;100.00
12879;BME280;20617;49.476;10.986;2023-10-31T04:58:04;96809.63;;;11.32;100.00
12879;BME280;20617;49.476;10.986;2023-10-31T05:00:10;96812.34;;;11.31;100.00
12879;BME280;20617;49.476;10.986;2023-10-31T05:02:15;96813.19;;;11.31;100.00
12879;BME280;20617;49.476;10.986;2023-10-31T05:04:20;96812.75;;;11.25;100.00
12879;BME280;20617;49.476;10.986;2023-10-31T05:06:25;96817.34;;;11.21;100.00
12879;BME280;20617;49.476;10.986;2023-10-31T05:08:29;96822.84;;;11.17;100.00
12879;BME280;20617;49.476;10.986;2023-10-31T05:10:37;96820.91;;;11.20;100.00
12879;BME280;20617;49.476;10.986;2023-10-31T05:12:42;96832.44;;;11.03;100.00
12879;BME280;20617;49.476;10.986;2023-10-31T05:14:47;96827.56;;;11.12;100.00
12879;BME280;20617;49.476;10.986;2023-10-31T05:16:51;96834.22;;;11.16;100.00
12879;BME280;20617;49.476;10.986;2023-10-31T05:18:57;96837.56;;;11.18;100.00
12879;BME280;20617;49.476;10.986;2023-10-31T05:21:06;96820.69;;;11.23;100.00
12879;BME280;20617;49.476;10.986;2023-10-31T05:23:11;96828.28;;;11.26;100.00
12879;BME280;20617;49.476;10.986;2023-10-31T05:25:16;96818.09;;;11.23;100.00
12879;BME280;20617;49.476;10.986;2023-10-31T05:27:23;96821.31;;;11.27;100.00
12879;BME280;20617;49.476;10.986;2023-10-31T05:29:28;96824.88;;;11.26;100.00
12879;BME280;20617;49.476;10.986;2023-10-31T05:31:32;96833.06;;;11.20;100.00
12879;BME280;20617;49.476;10.986;2023-10-31T05:33:37;96840.47;;;11.13;100.00
12879;BME280;20617;49.476;10.986;2023-10-31T05:35:42;96837.03;;;11.13;100.00
12879;BME280;20617;49.476;10.986;2023-10-31T05:37:47;96842.84;;;11.03;100.00
12879;BME280;20617;49.476;10.986;2023-10-31T05:39:53;96842.44;;;11.09;100.00
12879;BME280;20617;49.476;10.986;2023-10-31T05:41:57;96843.28;;;11.10;100.00
12879;BME280;20617;49.476;10.986;2023-10-31T05:44:05;96845.88;;;11.10;100.00
12879;BME280;20617;49.476;10.986;2023-10-31T05:46:08;96837.97;;;11.12;100.00
12879;BME280;20617;49.476;10.986;2023-10-31T05:48:15;96831.81;;;11.00;100.00
12879;BME280;20617;49.476;10.986;2023-10-31T05:50:21;96832.94;;;10.96;100.00
12879;BME280;20617;49.476;10.986;2023-10-31T05:52:27;96830.97;;;10.99;100.00
12879;BME280;20617;49.476;10.986;2023-10-31T05:54:33;96826.50;;;10.88;100.00
12879;BME280;20617;49.476;10.986;2023-10-31T05:56:38;96838.13;;;10.83;100.00
12879;BME280;20617;49.476;10.986;2023-10-31T05:58:44;96845.31;;;10.79;100.00
12879;BME280;20617;49.476;10.986;2023-10-31T06:00:52;96844.56;;;10.77;100.00
12879;BME280;20617;49.476;10.986;2023-10-31T06:02:57;96848.94;;;10.77;100.00
12879;BME280;20617;49.476;10.986;2023-10-31T06:05:02;96853.22;;;10.78;100.00
12879;BME280;20617;49.476;10.986;2023-10-31T06:07:07;96866.03;;;10.81;100.00
12879;BME280;20617;49.476;10.986;2023-10-31T06:09:12;96856.84;;;10.75;100.00
12879;BME280;20617;49.476;10.986;2023-10-31T06:11:16;96860.81;;;10.81;100.00
12879;BME280;20617;49.476;10.986;2023-10-31T06:13:21;96864.16;;;10.83;100.00
12879;BME280;20617;49.476;10.986;2023-10-31T06:15:27;96862.06;;;10.75;100.00
12879;BME280;20617;49.476;10.986;2023-10-31T06:17:34;96862.75;;;10.64;100.00
12879;BME280;20617;49.476;10.986;2023-10-31T06:19:39;96863.91;;;10.73;100.00
12879;BME280;20617;49.476;10.986;2023-10-31T06:21:47;96873.50;;;10.73;100.00
12879;BME280;20617;49.476;10.986;2023-10-31T06:23:52;96867.47;;;10.72;100.00
12879;BME280;20617;49.476;10.986;2023-10-31T06:25:57;96869.13;;;10.73;100.00
12879;BME280;20617;49.476;10.986;2023-10-31T06:28:05;96882.03;;;10.75;100.00
12879;BME280;20617;49.476;10.986;2023-10-31T06:30:10;96885.78;;;10.71;100.00
12879;BME280;20617;49.476;10.986;2023-10-31T06:32:27;96879.53;;;10.73;100.00
12879;BME280;20617;49.476;10.986;2023-10-31T06:34:34;96895.41;;;10.83;100.00
12879;BME280;20617;49.476;10.986;2023-10-31T06:36:39;96903.09;;;10.84;100.00
12879;BME280;20617;49.476;10.986;2023-10-31T06:38:41;96897.19;;;10.82;100.00
12879;BME280;20617;49.476;10.986;2023-10-31T06:40:46;96905.00;;;10.82;100.00
12879;BME280;20617;49.476;10.986;2023-10-31T06:42:52;96911.25;;;10.93;100.00
12879;BME280;20617;49.476;10.986;2023-10-31T06:44:57;96910.84;;;10.99;100.00
12879;BME280;20617;49.476;10.986;2023-10-31T06:46:59;96911.25;;;10.93;100.00
12879;BME280;20617;49.476;10.986;2023-10-31T06:49:04;96928.44;;;10.95;100.00
12879;BME280;20617;49.476;10.986;2023-10-31T06:51:08;96926.06;;;11.05;100.00
12879;BME280;20617;49.476;10.986;2023-10-31T06:53:13;96930.44;;;11.04;100.00
12879;BME280;20617;49.476;10.986;2023-10-31T06:55:18;96938.19;;;11.06;100.00
12879;BME280;20617;49.476;10.986;2023-10-31T06:57:23;96931.75;;;11.12;100.00
12879;BME280;20617;49.476;10.986;2023-10-31T06:59:28;96929.63;;;11.17;100.00
12879;BME280;20617;49.476;10.986;2023-10-31T07:01:33;96936.56;;;11.30;100.00
12879;BME280;20617;49.476;10.986;2023-10-31T07:03:39;96933.41;;;11.25;100.00
12879;BME280;20617;49.476;10.986;2023-10-31T07:05:44;96940.53;;;11.36;100.00
12879;BME280;20617;49.476;10.986;2023-10-31T07:07:52;96940.19;;;11.28;100.00
12879;BME280;20617;49.476;10.986;2023-10-31T07:09:56;96950.53;;;11.29;100.00
12879;BME280;20617;49.476;10.986;2023-10-31T07:12:02;96959.16;;;11.30;100.00
12879;BME280;20617;49.476;10.986;2023-10-31T07:14:07;96961.69;;;11.31;100.00
12879;BME280;20617;49.476;10.986;2023-10-31T07:16:12;96964.19;;;11.33;100.00
12879;BME280;20617;49.476;10.986;2023-10-31T07:18:16;96981.88;;;11.28;100.00
12879;BME280;20617;49.476;10.986;2023-10-31T07:20:21;96973.22;;;11.27;100.00
12879;BME280;20617;49.476;10.986;2023-10-31T07:22:26;96964.09;;;11.35;100.00
12879;BME280;20617;49.476;10.986;2023-10-31T07:24:34;96982.06;;;11.25;100.00
12879;BME280;20617;49.476;10.986;2023-10-31T07:26:39;96984.81;;;11.36;100.00
12879;BME280;20617;49.476;10.986;2023-10-31T07:28:44;96985.56;;;11.38;100.00
12879;BME280;20617;49.476;10.986;2023-10-31T07:30:50;96971.91;;;11.35;100.00
12879;BME280;20617;49.476;10.986;2023-10-31T07:32:55;96986.25;;;11.27;100.00
12879;BME280;20617;49.476;10.986;2023-10-31T07:34:59;96986.56;;;11.23;100.00
12879;BME280;20617;49.476;10.986;2023-10-31T07:37:04;96990.63;;;11.27;100.00
12879;BME280;20617;49.476;10.986;2023-10-31T07:39:09;96985.66;;;11.37;100.00
12879;BME280;20617;49.476;10.986;2023-10-31T07:41:17;96985.91;;;11.46;100.00
12879;BME280;20617;49.476;10.986;2023-10-31T07:43:22;96979.53;;;11.50;100.00
12879;BME280;20617;49.476;10.986;2023-10-31T07:45:26;96984.44;;;11.55;100.00
12879;BME280;20617;49.476;10.986;2023-10-31T07:47:31;96992.66;;;11.49;100.00
12879;BME280;20617;49.476;10.986;2023-10-31T07:49:36;96990.91;;;11.49;100.00
12879;BME280;20617;49.476;10.986;2023-10-31T07:51:41;96998.19;;;11.57;100.00
12879;BME280;20617;49.476;10.986;2023-10-31T07:53:47;97002.38;;;11.60;100.00
12879;BME280;20617;49.476;10.986;2023-10-31T07:55:52;96995.19;;;11.63;100.00
12879;BME280;20617;49.476;10.986;2023-10-31T07:57:59;96997.69;;;11.65;100.00
12879;BME280;20617;49.476;10.986;2023-10-31T08:00:08;97009.91;;;11.64;100.00
12879;BME280;20617;49.476;10.986;2023-10-31T08:02:13;97016.47;;;11.70;100.00
12879;BME280;20617;49.476;10.986;2023-10-31T08:04:18;97009.44;;;11.57;100.00
12879;BME280;20617;49.476;10.986;2023-10-31T08:06:23;97012.25;;;11.54;100.00
12879;BME280;20617;49.476;10.986;2023-10-31T08:08:28;97012.72;;;11.61;100.00
12879;BME280;20617;49.476;10.986;2023-10-31T08:10:33;97015.72;;;11.55;100.00
12879;BME280;20617;49.476;10.986;2023-10-31T08:12:36;97010.63;;;11.66;100.00
12879;BME280;20617;49.476;10.986;2023-10-31T08:14:43;97018.97;;;11.71;100.00
12879;BME280;20617;49.476;10.986;2023-10-31T08:16:48;97027.53;;;11.73;100.00
12879;BME280;20617;49.476;10.986;2023-10-31T08:18:50;97029.09;;;11.76;100.00
12879;BME280;20617;49.476;10.986;2023-10-31T08:20:55;97023.34;;;11.84;100.00
12879;BME280;20617;49.476;10.986;2023-10-31T08:23:00;97026.56;;;12.02;100.00
12879;BME280;20617;49.476;10.986;2023-10-31T08:25:05;97027.81;;;12.09;100.00
12879;BME280;20617;49.476;10.986;2023-10-31T08:27:10;97025.72;;;12.14;100.00
12879;BME280;20617;49.476;10.986;2023-10-31T08:29:15;97020.28;;;12.17;100.00
12879;BME280;20617;49.476;10.986;2023-10-31T08:31:23;97032.06;;;12.10;100.00
12879;BME280;20617;49.476;10.986;2023-10-31T08:33:28;97034.81;;;12.08;100.00
12879;BME280;20617;49.476;10.986;2023-10-31T08:35:32;97037.00;;;12.14;100.00
12879;BME280;20617;49.476;10.986;2023-10-31T08:37:37;97033.84;;;12.09;100.00
12879;BME280;20617;49.476;10.986;2023-10-31T08:39:42;97042.41;;;12.11;100.00
12879;BME280;20617;49.476;10.986;2023-10-31T08:41:50;97040.44;;;12.15;100.00
12879;BME280;20617;49.476;10.986;2023-10-31T08:43:53;97047.13;;;12.19;100.00
12879;BME280;20617;49.476;10.986;2023-10-31T08:46:00;97038.78;;;12.14;100.00
12879;BME280;20617;49.476;10.986;2023-10-31T08:48:07;97045.97;;;12.10;100.00
12879;BME280;20617;49.476;10.986;2023-10-31T08:50:13;97044.09;;;12.25;100.00
12879;BME280;20617;49.476;10.986;2023-10-31T08:52:18;97042.00;;;12.17;100.00
12879;BME280;20617;49.476;10.986;2023-10-31T08:54:24;97039.91;;;12.22;100.00
12879;BME280;20617;49.476;10.986;2023-10-31T08:56:28;97034.59;;;11.98;100.00
12879;BME280;20617;49.476;10.986;2023-10-31T08:58:33;97036.34;;;11.85;100.00
12879;BME280;20617;49.476;10.986;2023-10-31T09:00:38;97029.44;;;11.84;100.00
12879;BME280;20617;49.476;10.986;2023-10-31T09:02:40;97037.16;;;11.86;100.00
12879;BME280;20617;49.476;10.986;2023-10-31T09:04:48;97038.25;;;11.96;100.00
12879;BME280;20617;49.476;10.986;2023-10-31T09:06:53;97033.84;;;11.96;100.00
12879;BME280;20617;49.476;10.986;2023-10-31T09:08:57;97032.59;;;11.89;100.00
12879;BME280;20617;49.476;10.986;2023-10-31T09:11:03;97035.84;;;11.66;100.00
12879;BME280;20617;49.476;10.986;2023-10-31T09:13:08;97047.50;;;11.60;100.00
12879;BME280;20617;49.476;10.986;2023-10-31T09:15:12;97052.09;;;11.56;100.00
12879;BME280;20617;49.476;10.986;2023-10-31T09:17:17;97044.69;;;11.50;100.00
12879;BME280;20617;49.476;10.986;2023-10-31T09:19:22;97043.53;;;11.54;100.00
12879;BME280;20617;49.476;10.986;2023-10-31T09:21:30;97047.09;;;11.53;100.00
12879;BME280;20617;49.476;10.986;2023-10-31T09:23:35;97056.06;;;11.49;100.00
12879;BME280;20617;49.476;10.986;2023-10-31T09:25:39;97049.22;;;11.74;100.00
12879;BME280;20617;49.476;10.986;2023-10-31T09:27:44;97050.63;;;11.92;100.00
12879;BME280;20617;49.476;10.986;2023-10-31T09:29:49;97049.72;;;11.93;100.00
12879;BME280;20617;49.476;10.986;2023-10-31T09:31:54;97050.88;;;12.02;100.00
12879;BME280;20617;49.476;10.986;2023-10-31T09:33:59;97051.16;;;11.97;100.00
12879;BME280;20617;49.476;10.986;2023-10-31T09:36:05;97049.81;;;11.92;100.00
12879;BME280;20617;49.476;10.986;2023-10-31T09:38:13;97045.22;;;11.95;100.00
12879;BME280;20617;49.476;10.986;2023-10-31T09:40:18;97039.91;;;11.97;100.00
12879;BME280;20617;49.476;10.986;2023-10-31T09:42:23;97037.41;;;12.08;100.00
12879;BME280;20617;49.476;10.986;2023-10-31T09:44:28;97051.38;;;11.94;100.00
12879;BME280;20617;49.476;10.986;2023-10-31T09:46:33;97053.34;;;12.04;100.00
12879;BME280;20617;49.476;10.986;2023-10-31T09:48:38;97052.66;;;12.02;100.00
12879;BME280;20617;49.476;10.986;2023-10-31T09:50:43;97052.84;;;11.98;100.00
12879;BME280;20617;49.476;10.986;2023-10-31T09:52:48;97064.31;;;12.09;100.00
12879;BME280;20617;49.476;10.986;2023-10-31T09:54:56;97057.03;;;12.14;100.00
12879;BME280;20617;49.476;10.986;2023-10-31T09:57:02;97054.41;;;12.14;100.00
12879;BME280;20617;49.476;10.986;2023-10-31T09:59:07;97069.63;;;11.94;100.00
12879;BME280;20617;49.476;10.986;2023-10-31T10:01:13;97071.84;;;12.13;100.00
12879;BME280;20617;49.476;10.986;2023-10-31T10:03:18;97075.91;;;12.30;100.00
12879;BME280;20617;49.476;10.986;2023-10-31T10:05:23;97080.91;;;12.20;100.00
12879;BME280;20617;49.476;10.986;2023-10-31T10:07:28;97074.75;;;12.21;100.00
12879;BME280;20617;49.476;10.986;2023-10-31T10:09:33;97088.00;;;12.18;100.00
12879;BME280;20617;49.476;10.986;2023-10-31T10:11:37;97089.28;;;12.26;100.00
12879;BME280;20617;49.476;10.986;2023-10-31T10:13:42;97087.19;;;12.18;100.00
12879;BME280;20617;49.476;10.986;2023-10-31T10:15:47;97084.03;;;12.13;100.00
12879;BME280;20617;49.476;10.986;2023-10-31T10:17:54;97090.00;;;12.15;100.00
12879;BME280;20617;49.476;10.986;2023-10-31T10:20:05;97089.03;;;12.03;100.00
12879;BME280;20617;49.476;10.986;2023-10-31T10:22:08;97089.38;;;11.98;100.00
12879;BME280;20617;49.476;10.986;2023-10-31T10:24:14;97091.25;;;12.09;100.00
12879;BME280;20617;49.476;10.986;2023-10-31T10:26:16;97096.25;;;12.12;100.00
12879;BME280;20617;49.476;10.986;2023-10-31T10:28:25;97094.19;;;12.17;100.00
12879;BME280;20617;49.476;10.986;2023-10-31T10:30:31;97091.78;;;12.14;100.00
12879;BME280;20617;49.476;10.986;2023-10-31T10:32:33;97098.97;;;12.23;100.00
12879;BME280;20617;49.476;10.986;2023-10-31T10:34:38;97100.66;;;12.37;100.00
12879;BME280;20617;49.476;10.986;2023-10-31T10:36:44;97107.78;;;12.48;100.00
12879;BME280;20617;49.476;10.986;2023-10-31T10:38:51;97113.72;;;12.37;100.00
12879;BME280;20617;49.476;10.986;2023-10-31T10:40:59;97109.75;;;12.32;100.00
12879;BME280;20617;49.476;10.986;2023-10-31T10:43:05;97109.44;;;12.49;100.00
12879;BME280;20617;49.476;10.986;2023-10-31T10:45:15;97109.66;;;12.46;100.00
12879;BME280;20617;49.476;10.986;2023-10-31T10:47:22;97114.63;;;12.62;100.00